Time;durP1;ratioP1;P1;durP2;ratioP2;P2;SDS_P1;SDS_P2;PMS_P1;PMS_P2;Temp;Humidity;BMP_temperature;BMP_pressure;BME280_temperature;BME280_humidity;BME280_pressure;Samples;Min_cycle;Max_cycle;Signal;HPM_P1;HPM_P2
2021/09/13 00:01:00;;;;;;;14.70;3.85;;;15.90;99.90;;;;;;4890082;29;20084;-80
2021/09/13 00:03:26;;;;;;;18.38;3.50;;;15.90;99.90;;;;;;4894784;29;20137;-79
2021/09/13 00:05:52;;;;;;;12.88;2.80;;;15.90;99.90;;;;;;4868811;29;20053;-81
2021/09/13 00:08:17;;;;;;;19.13;3.38;;;15.90;99.90;;;;;;4893311;29;20053;-81
2021/09/13 00:10:45;;;;;;;15.55;2.63;;;16.00;99.90;;;;;;4889398;29;20040;-80
2021/09/13 00:13:11;;;;;;;19.80;3.17;;;15.90;99.90;;;;;;4893439;29;20053;-81
2021/09/13 00:15:37;;;;;;;20.30;3.08;;;15.90;99.90;;;;;;4894237;29;20035;-81
2021/09/13 00:18:03;;;;;;;10.18;2.50;;;15.90;99.90;;;;;;4889007;29;20045;-80
2021/09/13 00:20:28;;;;;;;15.75;2.80;;;15.90;99.90;;;;;;4891675;29;20040;-81
2021/09/13 00:22:54;;;;;;;11.02;2.47;;;15.90;99.90;;;;;;4889328;29;20064;-81
2021/09/13 00:25:20;;;;;;;9.73;2.53;;;15.90;99.90;;;;;;4889777;29;20052;-80
2021/09/13 00:27:45;;;;;;;13.00;2.88;;;15.90;99.90;;;;;;4890526;29;20051;-82
2021/09/13 00:30:11;;;;;;;13.63;2.63;;;15.90;99.90;;;;;;4874500;29;20080;-79
2021/09/13 00:32:37;;;;;;;13.50;2.60;;;15.90;99.90;;;;;;4891134;29;20108;-80
2021/09/13 00:35:03;;;;;;;12.18;2.50;;;15.90;99.90;;;;;;4894327;29;20064;-81
2021/09/13 00:37:29;;;;;;;14.85;2.95;;;15.90;99.90;;;;;;4894311;29;20061;-80
2021/09/13 00:39:56;;;;;;;11.75;3.00;;;15.90;99.90;;;;;;4889332;29;20060;-83
2021/09/13 00:42:21;;;;;;;13.60;2.50;;;15.90;99.90;;;;;;4893916;29;20200;-81
2021/09/13 00:44:47;;;;;;;10.23;2.47;;;15.80;99.90;;;;;;4892134;29;20119;-82
2021/09/13 00:47:13;;;;;;;15.25;2.60;;;15.80;99.90;;;;;;4892386;29;20437;-81
2021/09/13 00:49:39;;;;;;;9.23;2.40;;;15.80;99.90;;;;;;4887369;29;20180;-81
2021/09/13 00:52:05;;;;;;;11.50;2.50;;;15.80;99.90;;;;;;4894355;29;20064;-81
2021/09/13 00:54:31;;;;;;;14.32;2.72;;;15.80;99.90;;;;;;4893463;29;20051;-80
2021/09/13 00:56:57;;;;;;;16.88;2.80;;;15.80;99.90;;;;;;4878673;29;20039;-82
2021/09/13 00:59:23;;;;;;;16.98;3.58;;;15.90;99.90;;;;;;4892882;29;20500;-81
2021/09/13 01:01:49;;;;;;;11.65;3.50;;;15.90;99.90;;;;;;4890513;29;20064;-82
2021/09/13 01:04:15;;;;;;;15.07;3.30;;;15.90;99.90;;;;;;4892145;29;20044;-80
2021/09/13 01:06:41;;;;;;;18.73;4.63;;;15.90;99.90;;;;;;4909828;29;20100;-82
2021/09/13 01:09:06;;;;;;;15.38;4.03;;;15.90;99.90;;;;;;4910394;29;20091;-80
2021/09/13 01:11:33;;;;;;;17.63;4.07;;;15.80;99.90;;;;;;4892323;29;20063;-82
2021/09/13 01:13:58;;;;;;;14.25;4.20;;;15.90;99.90;;;;;;4910077;29;20035;-82
2021/09/13 01:16:24;;;;;;;18.52;3.53;;;15.90;99.90;;;;;;4893175;29;20130;-81
2021/09/13 01:18:50;;;;;;;11.68;3.38;;;15.80;99.90;;;;;;4910682;29;20047;-81
2021/09/13 01:21:16;;;;;;;17.98;3.20;;;15.90;99.90;;;;;;4895832;29;20106;-82
2021/09/13 01:23:42;;;;;;;17.10;3.17;;;15.90;99.90;;;;;;4906647;29;20437;-82
2021/09/13 01:26:09;;;;;;;20.02;3.20;;;15.80;99.90;;;;;;4893299;29;20087;-81
2021/09/13 01:28:35;;;;;;;21.70;2.88;;;15.80;99.90;;;;;;4891698;29;20392;-81
2021/09/13 01:31:01;;;;;;;15.98;2.92;;;15.80;99.90;;;;;;4895418;29;20119;-81
2021/09/13 01:33:27;;;;;;;13.55;2.95;;;15.70;99.90;;;;;;4893951;29;20044;-81
2021/09/13 01:35:52;;;;;;;15.00;3.13;;;15.70;99.90;;;;;;4890358;29;20123;-81
2021/09/13 01:38:23;;;;;;;17.13;3.10;;;15.70;99.90;;;;;;4892783;29;20072;-81
2021/09/13 01:40:50;;;;;;;10.57;2.83;;;15.70;99.90;;;;;;4893767;29;20131;-80
2021/09/13 01:43:15;;;;;;;14.02;2.80;;;15.80;99.90;;;;;;4891612;29;20452;-79
2021/09/13 01:45:41;;;;;;;13.35;2.67;;;15.70;99.90;;;;;;4912707;29;20040;-82
2021/09/13 01:48:07;;;;;;;17.25;3.58;;;15.70;99.90;;;;;;4893361;29;20044;-81
2021/09/13 01:50:33;;;;;;;22.88;3.67;;;15.70;99.90;;;;;;4892726;29;20107;-81
2021/09/13 01:52:58;;;;;;;21.23;4.07;;;15.70;99.90;;;;;;4907656;29;20036;-82
2021/09/13 01:55:24;;;;;;;18.70;4.30;;;15.70;99.90;;;;;;4912255;29;20068;-81
2021/09/13 01:57:50;;;;;;;19.52;3.20;;;15.70;99.90;;;;;;4908291;29;20100;-81
2021/09/13 02:00:16;;;;;;;22.05;3.30;;;15.70;99.90;;;;;;4880384;29;20138;-79
2021/09/13 02:02:42;;;;;;;12.98;2.80;;;15.70;99.90;;;;;;4874910;29;20056;-81
2021/09/13 02:05:08;;;;;;;24.00;3.22;;;15.70;99.90;;;;;;4872097;29;20125;-79
2021/09/13 02:07:34;;;;;;;15.07;3.08;;;15.70;99.90;;;;;;4886427;29;20043;-80
2021/09/13 02:10:00;;;;;;;26.35;3.35;;;15.70;99.90;;;;;;4891447;29;20485;-82
2021/09/13 02:12:25;;;;;;;21.15;3.92;;;15.60;99.90;;;;;;4889300;29;20041;-79
2021/09/13 02:14:51;;;;;;;16.40;3.22;;;15.60;99.90;;;;;;4891581;29;20048;-81
2021/09/13 02:17:17;;;;;;;19.92;3.50;;;15.60;99.90;;;;;;4908235;29;20028;-81
2021/09/13 02:19:43;;;;;;;14.70;3.30;;;15.50;99.90;;;;;;4891700;29;20221;-80
2021/09/13 02:22:10;;;;;;;18.17;3.38;;;15.50;99.90;;;;;;4889604;29;20052;-80
2021/09/13 02:24:35;;;;;;;18.55;3.78;;;15.40;99.90;;;;;;4890392;29;20493;-81
2021/09/13 02:27:01;;;;;;;14.82;3.90;;;15.40;99.90;;;;;;4891066;29;20048;-80
2021/09/13 02:29:27;;;;;;;21.70;4.90;;;15.30;99.90;;;;;;4887904;29;20049;-79
2021/09/13 02:31:54;;;;;;;17.88;4.30;;;15.20;99.90;;;;;;4891841;29;20093;-81
2021/09/13 02:34:19;;;;;;;18.05;5.38;;;15.30;99.90;;;;;;4892737;29;20068;-80
2021/09/13 02:36:45;;;;;;;27.17;7.18;;;15.20;99.90;;;;;;4874659;29;20045;-80
2021/09/13 02:39:11;;;;;;;23.65;6.47;;;15.20;99.90;;;;;;4877167;29;20048;-80
2021/09/13 02:41:37;;;;;;;22.17;5.95;;;15.10;99.90;;;;;;4877417;29;20036;-81
2021/09/13 02:44:03;;;;;;;18.48;3.67;;;15.10;99.90;;;;;;4894673;29;20520;-81
2021/09/13 02:46:29;;;;;;;16.83;3.17;;;15.00;99.90;;;;;;4894680;29;20029;-80
2021/09/13 02:48:55;;;;;;;18.23;2.85;;;15.00;99.90;;;;;;4892131;29;20059;-82
2021/09/13 02:51:22;;;;;;;15.38;3.10;;;15.00;99.90;;;;;;4894046;29;20040;-81
2021/09/13 02:53:48;;;;;;;22.75;4.50;;;15.00;99.90;;;;;;4893009;29;20430;-80
2021/09/13 02:56:14;;;;;;;15.63;4.07;;;15.00;99.90;;;;;;4873801;29;20037;-80
2021/09/13 02:58:41;;;;;;;15.27;3.47;;;14.90;99.90;;;;;;4894086;29;20130;-81
2021/09/13 03:01:06;;;;;;;16.40;4.32;;;14.90;99.90;;;;;;4911812;29;20045;-79
2021/09/13 03:03:32;;;;;;;17.95;3.92;;;14.90;99.90;;;;;;4911143;29;20204;-81
2021/09/13 03:05:58;;;;;;;17.20;3.15;;;15.00;99.90;;;;;;4914308;29;20071;-81
2021/09/13 03:08:24;;;;;;;20.45;3.38;;;14.90;99.90;;;;;;4899811;29;20053;-81
2021/09/13 03:10:49;;;;;;;16.95;3.15;;;15.00;99.90;;;;;;4912963;29;20041;-82
2021/09/13 03:13:15;;;;;;;21.15;3.20;;;14.90;99.90;;;;;;4914893;29;20028;-80
2021/09/13 03:15:41;;;;;;;13.73;2.70;;;14.90;99.90;;;;;;4914080;29;20432;-82
2021/09/13 03:18:06;;;;;;;15.82;3.47;;;14.90;99.90;;;;;;4877811;29;20048;-79
2021/09/13 03:20:32;;;;;;;18.63;2.88;;;14.90;99.90;;;;;;4888563;29;20059;-80
2021/09/13 03:22:58;;;;;;;15.30;2.63;;;14.90;99.90;;;;;;4892882;29;20534;-80
2021/09/13 03:25:26;;;;;;;10.73;2.55;;;14.80;99.90;;;;;;4879182;29;20105;-80
2021/09/13 03:27:52;;;;;;;18.02;2.90;;;14.70;99.90;;;;;;4892161;29;20048;-80
2021/09/13 03:30:17;;;;;;;19.05;3.72;;;14.80;99.90;;;;;;4894983;29;20044;-80
2021/09/13 03:32:43;;;;;;;12.35;2.50;;;14.70;99.90;;;;;;4876403;29;20057;-82
2021/09/13 03:35:09;;;;;;;12.95;2.80;;;14.80;99.90;;;;;;4882088;29;20144;-81
2021/09/13 03:37:35;;;;;;;14.15;2.95;;;14.70;99.90;;;;;;4893473;29;20032;-80
2021/09/13 03:40:01;;;;;;;16.42;2.95;;;14.60;99.90;;;;;;4891685;29;20495;-81
2021/09/13 03:42:26;;;;;;;11.88;3.10;;;14.50;99.90;;;;;;4890806;29;20067;-79
2021/09/13 03:44:52;;;;;;;13.85;3.30;;;14.60;99.90;;;;;;4893977;29;20076;-82
2021/09/13 03:47:18;;;;;;;25.35;4.05;;;14.50;99.90;;;;;;4895697;29;20049;-81
2021/09/13 03:49:43;;;;;;;16.02;3.40;;;14.50;99.90;;;;;;4891504;29;20044;-81
2021/09/13 03:52:09;;;;;;;18.90;3.25;;;14.40;99.90;;;;;;4891983;29;20475;-82
2021/09/13 03:54:35;;;;;;;23.00;4.28;;;14.40;99.90;;;;;;4908637;29;20044;-82
2021/09/13 03:57:02;;;;;;;15.20;3.35;;;14.30;99.90;;;;;;4894004;29;21823;-81
2021/09/13 03:59:28;;;;;;;14.20;3.40;;;14.30;99.90;;;;;;4891516;29;20485;-79
2021/09/13 04:01:54;;;;;;;17.20;3.63;;;14.30;99.90;;;;;;4876686;29;20052;-82
2021/09/13 04:04:23;;;;;;;11.32;3.33;;;14.30;99.90;;;;;;4892647;29;20047;-81
2021/09/13 04:06:55;;;;;;;17.90;3.20;;;14.20;99.90;;;;;;4892195;29;20053;-81
2021/09/13 04:11:54;;;;;;;12.32;3.15;;;14.10;99.90;;;;;;4894204;29;20529;-81
2021/09/13 04:14:30;;;;;;;15.50;3.67;;;14.00;99.90;;;;;;4892313;29;20200;-80
2021/09/13 04:16:57;;;;;;;18.25;3.72;;;14.00;99.90;;;;;;4893753;29;20032;-79
2021/09/13 04:19:23;;;;;;;15.73;3.53;;;13.90;99.90;;;;;;4874729;29;20044;-80
2021/09/13 04:21:54;;;;;;;21.67;3.65;;;13.90;99.90;;;;;;4876781;29;20044;-79
2021/09/13 04:24:20;;;;;;;16.20;4.05;;;13.80;99.90;;;;;;4875718;29;20049;-81
2021/09/13 04:26:45;;;;;;;13.02;3.92;;;13.80;99.90;;;;;;4909426;29;20418;-80
2021/09/13 04:29:12;;;;;;;8.60;3.15;;;13.80;99.90;;;;;;4906242;29;20121;-81
2021/09/13 04:31:38;;;;;;;14.55;3.38;;;13.80;99.90;;;;;;4871479;29;20327;-81
2021/09/13 04:34:04;;;;;;;13.90;3.55;;;13.70;99.90;;;;;;4892297;29;20063;-80
2021/09/13 04:36:29;;;;;;;14.50;3.80;;;13.70;99.90;;;;;;4892717;29;20128;-82
2021/09/13 04:38:57;;;;;;;6.65;3.05;;;13.60;99.90;;;;;;4892243;29;20565;-80
2021/09/13 04:41:22;;;;;;;7.80;2.88;;;13.60;99.90;;;;;;4895245;29;20119;-79
2021/09/13 04:43:48;;;;;;;12.93;3.25;;;13.50;99.90;;;;;;4892500;29;20041;-81
2021/09/13 04:46:14;;;;;;;10.20;3.30;;;13.50;99.90;;;;;;4888017;29;20589;-80
2021/09/13 04:48:40;;;;;;;12.45;3.00;;;13.50;99.90;;;;;;4905442;29;20045;-78
2021/09/13 04:51:06;;;;;;;12.77;3.40;;;13.50;99.90;;;;;;4891879;29;20067;-79
2021/09/13 04:53:32;;;;;;;14.20;3.42;;;13.40;99.90;;;;;;4889677;29;20080;-79
2021/09/13 04:55:57;;;;;;;9.23;2.88;;;13.40;99.90;;;;;;4875364;29;20453;-80
2021/09/13 04:58:23;;;;;;;10.27;2.70;;;13.40;99.90;;;;;;4891852;29;20049;-80
2021/09/13 05:00:49;;;;;;;9.75;2.78;;;13.30;99.90;;;;;;4891345;29;20384;-80
2021/09/13 05:03:14;;;;;;;12.07;3.20;;;13.30;99.90;;;;;;4893242;29;20048;-78
2021/09/13 05:05:40;;;;;;;17.13;3.40;;;13.30;99.90;;;;;;4890234;29;20063;-77
2021/09/13 05:08:06;;;;;;;9.77;3.50;;;13.20;99.90;;;;;;4888806;29;20333;-76
2021/09/13 05:10:32;;;;;;;11.45;3.92;;;13.20;99.90;;;;;;4892306;29;20048;-79
2021/09/13 05:12:58;;;;;;;13.38;4.10;;;13.20;99.90;;;;;;4892258;29;20044;-79
2021/09/13 05:15:24;;;;;;;13.70;3.50;;;13.30;99.90;;;;;;4879619;29;20100;-79
2021/09/13 05:17:49;;;;;;;8.50;3.35;;;13.20;99.90;;;;;;4893048;29;20044;-78
2021/09/13 05:20:15;;;;;;;10.02;2.97;;;13.20;99.90;;;;;;4894766;29;20048;-78
2021/09/13 05:22:42;;;;;;;9.43;3.38;;;13.10;99.90;;;;;;4875991;29;20044;-80
2021/09/13 05:25:09;;;;;;;8.18;3.30;;;13.10;99.90;;;;;;4891014;29;20048;-79
2021/09/13 05:27:34;;;;;;;7.00;2.92;;;13.10;99.90;;;;;;4889036;29;20112;-81
2021/09/13 05:30:00;;;;;;;10.13;3.50;;;13.30;99.90;;;;;;4890701;29;20044;-80
2021/09/13 05:32:26;;;;;;;10.88;3.80;;;13.20;99.90;;;;;;4888604;29;20163;-81
2021/09/13 05:34:52;;;;;;;17.70;4.75;;;13.20;99.90;;;;;;4889016;29;20044;-80
2021/09/13 05:37:17;;;;;;;15.07;4.72;;;13.30;99.90;;;;;;4875856;29;20508;-80
2021/09/13 05:39:43;;;;;;;19.63;4.75;;;13.20;99.90;;;;;;4891647;29;20095;-78
2021/09/13 05:42:09;;;;;;;18.35;4.68;;;13.30;99.90;;;;;;4891881;29;20096;-77
2021/09/13 05:44:35;;;;;;;15.02;4.95;;;13.40;99.90;;;;;;4890641;29;20136;-80
2021/09/13 05:47:02;;;;;;;17.40;4.47;;;13.40;99.90;;;;;;4876063;29;20131;-80
2021/09/13 05:49:28;;;;;;;13.88;4.38;;;13.50;99.90;;;;;;4871999;29;20445;-81
2021/09/13 05:51:54;;;;;;;15.30;4.53;;;13.50;99.90;;;;;;4888475;29;20115;-80
2021/09/13 05:54:25;;;;;;;17.05;4.63;;;13.60;99.90;;;;;;4875940;29;20049;-78
2021/09/13 05:56:56;;;;;;;14.98;4.53;;;13.70;99.90;;;;;;4891793;29;20064;-80
2021/09/13 05:59:23;;;;;;;19.98;4.78;;;13.70;99.90;;;;;;4888627;29;20116;-80
2021/09/13 06:01:50;;;;;;;16.58;4.50;;;13.70;99.90;;;;;;4892130;29;20342;-80
2021/09/13 06:04:16;;;;;;;16.08;5.15;;;13.80;99.90;;;;;;4908550;29;20045;-79
2021/09/13 06:06:41;;;;;;;17.80;4.75;;;13.80;99.90;;;;;;4892493;29;20055;-80
2021/09/13 06:09:09;;;;;;;21.52;4.28;;;13.90;99.90;;;;;;4909491;29;20044;-81
2021/09/13 06:11:37;;;;;;;20.42;3.97;;;13.90;99.90;;;;;;4894310;29;20084;-79
2021/09/13 06:14:04;;;;;;;15.70;4.20;;;13.90;99.90;;;;;;4893471;29;20444;-81
2021/09/13 06:16:30;;;;;;;15.20;4.43;;;14.00;99.90;;;;;;4889415;29;20593;-78
2021/09/13 06:18:56;;;;;;;19.17;4.47;;;13.90;99.90;;;;;;4880719;29;20049;-80
2021/09/13 06:21:21;;;;;;;13.18;3.75;;;13.90;99.90;;;;;;4880568;29;20112;-80
2021/09/13 06:23:47;;;;;;;14.57;3.67;;;14.00;99.90;;;;;;4880537;29;20108;-79
2021/09/13 06:26:13;;;;;;;12.45;3.42;;;14.00;99.90;;;;;;4887858;29;20104;-80
2021/09/13 06:28:41;;;;;;;19.35;4.03;;;14.10;99.90;;;;;;4893053;29;20457;-79
2021/09/13 06:31:06;;;;;;;11.75;3.55;;;14.10;99.90;;;;;;4896620;29;20374;-80
2021/09/13 06:33:35;;;;;;;9.55;3.90;;;14.20;99.90;;;;;;4911904;29;20036;-79
2021/09/13 06:36:02;;;;;;;20.10;3.80;;;14.30;99.90;;;;;;4881513;29;20043;-79
2021/09/13 06:38:30;;;;;;;13.05;3.47;;;14.40;99.90;;;;;;4899179;29;20091;-80
2021/09/13 06:40:56;;;;;;;15.68;3.40;;;14.50;99.90;;;;;;4899783;29;20040;-80
2021/09/13 06:43:22;;;;;;;13.85;3.50;;;14.60;99.90;;;;;;4884478;29;20072;-80
2021/09/13 06:45:57;;;;;;;18.95;3.85;;;14.70;99.90;;;;;;4894904;29;20048;-81
2021/09/13 06:48:22;;;;;;;11.48;3.42;;;14.80;99.90;;;;;;4897018;29;20071;-78
2021/09/13 06:50:48;;;;;;;12.95;3.25;;;14.90;99.90;;;;;;4881549;29;20374;-81
2021/09/13 06:53:14;;;;;;;8.75;3.20;;;15.00;99.90;;;;;;4881916;29;20056;-78
2021/09/13 06:55:40;;;;;;;13.35;3.58;;;15.10;99.90;;;;;;4890529;29;20053;-82
2021/09/13 06:58:08;;;;;;;17.00;4.63;;;15.10;99.90;;;;;;4887171;29;20104;-78
2021/09/13 07:00:34;;;;;;;12.90;3.17;;;15.20;99.90;;;;;;4890812;29;20365;-79
2021/09/13 07:03:01;;;;;;;8.90;2.85;;;15.30;99.90;;;;;;4906616;29;20196;-80
2021/09/13 07:05:27;;;;;;;10.80;3.50;;;15.30;99.90;;;;;;4894750;29;20079;-80
2021/09/13 07:07:53;;;;;;;10.35;2.85;;;15.40;99.90;;;;;;4890507;29;20127;-79
2021/09/13 07:10:20;;;;;;;8.25;2.85;;;15.50;99.90;;;;;;4887256;29;20112;-79
2021/09/13 07:12:47;;;;;;;11.02;3.20;;;15.60;99.90;;;;;;4893642;29;20068;-79
2021/09/13 07:15:15;;;;;;;9.80;3.03;;;15.70;99.90;;;;;;4891791;29;20048;-79
2021/09/13 07:17:41;;;;;;;14.60;3.50;;;15.90;99.90;;;;;;4888912;29;20128;-79
2021/09/13 07:20:08;;;;;;;11.15;3.17;;;16.00;99.90;;;;;;4894299;29;20473;-79
2021/09/13 07:22:34;;;;;;;13.13;3.10;;;16.10;99.90;;;;;;4891913;29;20098;-79
2021/09/13 07:25:00;;;;;;;11.73;3.00;;;16.20;99.90;;;;;;4913872;29;20072;-79
2021/09/13 07:27:25;;;;;;;13.48;3.28;;;16.30;99.90;;;;;;4877962;29;20059;-81
2021/09/13 07:29:51;;;;;;;12.63;2.90;;;16.30;99.90;;;;;;4890730;29;20045;-79
2021/09/13 07:32:17;;;;;;;11.32;3.53;;;16.50;99.90;;;;;;4892018;29;20047;-79
2021/09/13 07:34:42;;;;;;;15.40;4.10;;;16.50;99.90;;;;;;4887974;29;20460;-79
2021/09/13 07:37:08;;;;;;;12.63;4.47;;;16.50;99.90;;;;;;4876067;29;20068;-78
2021/09/13 07:39:34;;;;;;;7.22;2.15;;;16.60;99.90;;;;;;4877091;29;20388;-79
2021/09/13 07:41:59;;;;;;;11.95;2.63;;;16.60;99.90;;;;;;4897068;29;20139;-80
2021/09/13 07:44:25;;;;;;;10.40;2.75;;;16.60;99.90;;;;;;4892221;29;20047;-80
2021/09/13 07:46:52;;;;;;;8.95;1.95;;;16.70;99.90;;;;;;4893827;29;20124;-79
2021/09/13 07:49:20;;;;;;;14.23;2.55;;;16.80;99.90;;;;;;4878113;29;20409;-80
2021/09/13 07:52:31;;;;;;;9.60;1.98;;;17.00;99.90;;;;;;4887478;29;20054;-79
2021/09/13 07:54:56;;;;;;;7.30;1.85;;;17.10;99.90;;;;;;4820002;29;20161;-78
2021/09/13 07:57:22;;;;;;;6.65;1.52;;;17.30;99.90;;;;;;4836202;29;20153;-78
2021/09/13 07:59:48;;;;;;;10.30;1.88;;;17.70;99.90;;;;;;4837319;29;20108;-78
2021/09/13 08:02:13;;;;;;;9.23;1.90;;;17.50;99.90;;;;;;4839121;29;20057;-78
2021/09/13 08:04:40;;;;;;;6.28;1.58;;;17.70;99.90;;;;;;4837161;29;20140;-78
2021/09/13 08:07:06;;;;;;;6.78;1.63;;;17.70;99.90;;;;;;4823036;29;20061;-78
2021/09/13 08:09:32;;;;;;;7.75;1.88;;;17.60;99.90;;;;;;4822498;29;20064;-78
2021/09/13 08:11:58;;;;;;;6.53;1.60;;;17.90;99.90;;;;;;4840661;29;20707;-78
2021/09/13 08:14:24;;;;;;;7.18;1.70;;;17.90;99.90;;;;;;4836670;29;20094;-82
2021/09/13 08:16:51;;;;;;;5.82;1.65;;;17.90;99.90;;;;;;4823560;29;20486;-79
2021/09/13 08:19:17;;;;;;;6.63;1.50;;;17.90;99.90;;;;;;4821398;29;20057;-77
2021/09/13 08:21:43;;;;;;;8.50;1.35;;;17.70;99.90;;;;;;4818065;29;20064;-77
2021/09/13 08:24:09;;;;;;;8.20;1.38;;;17.70;99.90;;;;;;4837002;29;20049;-80
2021/09/13 08:26:35;;;;;;;5.82;1.52;;;17.60;99.90;;;;;;4835776;29;20102;-78
2021/09/13 08:29:02;;;;;;;5.05;1.00;;;17.80;99.90;;;;;;4866954;29;20049;-80
2021/09/13 08:31:27;;;;;;;4.53;1.00;;;17.70;99.90;;;;;;4895222;29;20052;-78
2021/09/13 08:33:53;;;;;;;8.00;1.30;;;17.70;99.90;;;;;;4891388;29;20048;-80
2021/09/13 08:36:18;;;;;;;6.03;1.20;;;17.80;99.90;;;;;;4884876;29;20136;-80
2021/09/13 08:38:44;;;;;;;5.90;1.02;;;17.70;99.90;;;;;;4886267;29;20480;-81
2021/09/13 08:41:10;;;;;;;5.07;1.25;;;17.70;99.90;;;;;;4892540;29;20096;-78
2021/09/13 08:43:36;;;;;;;7.57;1.23;;;17.70;99.90;;;;;;4876575;29;20075;-80
2021/09/13 08:46:09;;;;;;;3.10;0.98;;;17.70;99.90;;;;;;4883489;29;20052;-82
2021/09/13 08:48:41;;;;;;;3.95;1.15;;;17.90;99.90;;;;;;4890243;29;20048;-80
2021/09/13 08:53:42;;;;;;;7.32;1.52;;;17.80;99.90;;;;;;4891771;29;20128;-80
2021/09/13 08:56:13;;;;;;;5.10;1.20;;;17.70;99.90;;;;;;4890594;29;20072;-79
2021/09/13 08:58:41;;;;;;;5.55;1.20;;;17.60;99.90;;;;;;4873374;29;20056;-80
2021/09/13 09:01:07;;;;;;;5.65;1.20;;;17.50;99.90;;;;;;4890530;29;20094;-79
2021/09/13 09:03:39;;;;;;;3.90;1.10;;;17.50;99.90;;;;;;4890808;29;20152;-78
2021/09/13 09:06:05;;;;;;;6.20;1.13;;;17.30;99.90;;;;;;4891130;29;20049;-77
2021/09/13 09:08:33;;;;;;;4.32;1.00;;;17.30;99.90;;;;;;4892496;29;20493;-79
2021/09/13 09:11:04;;;;;;;6.60;1.10;;;17.30;99.90;;;;;;4872050;29;20362;-80
2021/09/13 09:13:42;;;;;;;2.85;1.10;;;17.20;99.90;;;;;;4889423;29;21830;-80
2021/09/13 09:16:10;;;;;;;8.13;1.40;;;17.00;99.90;;;;;;4873981;29;20580;-81
2021/09/13 09:18:44;;;;;;;3.28;1.20;;;17.00;99.90;;;;;;4889453;29;20061;-80
2021/09/13 09:21:33;;;;;;;6.72;1.40;;;17.20;99.90;;;;;;4889249;29;20068;-80
2021/09/13 09:24:03;;;;;;;5.45;1.30;;;17.60;99.90;;;;;;4892864;29;20540;-79
2021/09/13 09:26:30;;;;;;;5.35;0.95;;;17.60;99.90;;;;;;4890830;29;20458;-80
2021/09/13 09:28:58;;;;;;;4.47;1.15;;;17.40;99.90;;;;;;4891018;29;20084;-81
2021/09/13 09:31:44;;;;;;;4.28;0.95;;;17.70;99.90;;;;;;4892769;29;20108;-80
2021/09/13 09:34:17;;;;;;;4.30;1.10;;;17.60;99.90;;;;;;4893113;29;20096;-80
2021/09/13 09:36:59;;;;;;;7.27;1.37;;;17.60;99.90;;;;;;4885618;29;20468;-82
2021/09/13 09:39:29;;;;;;;5.43;1.13;;;17.70;99.90;;;;;;4889445;29;20102;-80
2021/09/13 09:41:56;;;;;;;4.50;1.00;;;17.60;99.90;;;;;;4889670;29;20052;-80
2021/09/13 09:44:23;;;;;;;2.42;0.85;;;18.00;99.90;;;;;;4870866;29;20052;-79
2021/09/13 09:46:50;;;;;;;5.55;1.10;;;17.90;99.90;;;;;;4890983;29;20485;-79
2021/09/13 09:49:18;;;;;;;3.53;1.00;;;18.00;99.90;;;;;;4889124;29;20053;-80
2021/09/13 09:51:51;;;;;;;6.47;1.25;;;18.10;99.90;;;;;;4876291;29;20123;-80
2021/09/13 09:54:26;;;;;;;5.85;1.20;;;18.40;99.90;;;;;;4891472;29;20441;-80
2021/09/13 09:57:06;;;;;;;2.22;0.85;;;18.20;99.90;;;;;;4887613;29;20145;-83
2021/09/13 09:59:37;;;;;;;2.88;0.82;;;18.70;99.90;;;;;;4889610;29;20044;-81
2021/09/13 10:02:17;;;;;;;2.25;0.88;;;18.80;99.90;;;;;;4891029;29;20132;-80
2021/09/13 10:04:46;;;;;;;3.75;0.80;;;18.70;99.90;;;;;;4876016;29;20048;-80
2021/09/13 10:07:16;;;;;;;5.00;1.00;;;18.70;99.90;;;;;;4892457;29;20123;-80
2021/09/13 10:09:43;;;;;;;4.03;1.10;;;18.90;99.90;;;;;;4895352;29;20177;-81
2021/09/13 10:12:10;;;;;;;3.30;0.88;;;19.00;99.90;;;;;;4888545;29;20055;-78
2021/09/13 10:14:37;;;;;;;8.50;1.10;;;19.20;99.90;;;;;;4880703;29;20404;-82
2021/09/13 10:17:05;;;;;;;7.95;1.15;;;19.40;99.90;;;;;;4892868;29;20132;-81
2021/09/13 10:19:31;;;;;;;3.55;0.90;;;19.40;99.90;;;;;;4894104;29;20056;-80
2021/09/13 10:21:57;;;;;;;3.88;0.80;;;19.50;99.90;;;;;;4893914;29;20058;-81
2021/09/13 10:24:31;;;;;;;4.40;0.70;;;19.80;99.90;;;;;;4893813;29;20056;-81
2021/09/13 10:27:14;;;;;;;4.25;0.80;;;19.70;99.90;;;;;;4892526;29;20087;-81
2021/09/13 10:29:40;;;;;;;4.90;0.60;;;19.90;99.90;;;;;;4876420;29;20075;-80
2021/09/13 10:32:08;;;;;;;4.95;0.75;;;20.00;99.90;;;;;;4876735;29;20465;-81
2021/09/13 10:34:56;;;;;;;2.72;0.80;;;20.10;99.90;;;;;;4893710;29;20527;-80
2021/09/13 10:37:25;;;;;;;5.55;0.90;;;20.40;99.90;;;;;;4883261;29;20052;-81
2021/09/13 10:40:07;;;;;;;3.58;0.90;;;20.50;99.90;;;;;;4894440;29;20167;-78
2021/09/13 10:42:36;;;;;;;3.88;0.70;;;20.30;99.90;;;;;;4892087;29;20537;-79
2021/09/13 10:45:08;;;;;;;3.95;0.80;;;20.40;99.90;;;;;;4894635;29;20052;-80
2021/09/13 10:47:35;;;;;;;3.42;0.68;;;20.40;99.90;;;;;;4882222;29;20041;-80
2021/09/13 10:50:21;;;;;;;3.75;0.75;;;20.80;99.90;;;;;;4894602;29;20636;-80
2021/09/13 10:52:49;;;;;;;3.45;0.82;;;20.80;99.90;;;;;;4890702;29;20064;-80
2021/09/13 10:55:18;;;;;;;3.17;0.65;;;20.60;99.90;;;;;;4890988;29;20052;-80
2021/09/13 10:57:56;;;;;;;4.43;0.80;;;20.60;99.90;;;;;;4890809;29;20052;-79
2021/09/13 11:00:54;;;;;;;3.13;1.00;;;20.50;99.90;;;;;;4879674;29;20279;-78
2021/09/13 11:03:23;;;;;;;1.27;0.60;;;20.80;99.90;;;;;;4879832;29;20075;-77
2021/09/13 11:06:04;;;;;;;1.80;0.70;;;20.90;99.90;;;;;;4885410;29;20081;-78
2021/09/13 11:08:36;;;;;;;3.90;0.90;;;20.70;99.90;;;;;;4900332;29;20552;-76
2021/09/13 11:11:07;;;;;;;1.20;0.55;;;20.80;99.90;;;;;;4885392;29;20396;-79
2021/09/13 11:13:32;;;;;;;2.60;0.80;;;20.60;99.90;;;;;;4896516;29;20056;-77
2021/09/13 11:15:58;;;;;;;2.90;0.90;;;20.60;99.90;;;;;;4883163;29;20578;-77
2021/09/13 11:18:34;;;;;;;6.05;0.93;;;20.50;99.90;;;;;;4899904;29;20044;-78
2021/09/13 11:21:15;;;;;;;3.15;0.93;;;20.50;99.90;;;;;;4895337;29;20045;-78
2021/09/13 11:23:42;;;;;;;2.72;0.90;;;20.40;99.90;;;;;;4871830;29;20139;-77
2021/09/13 11:26:08;;;;;;;2.33;0.70;;;19.80;99.90;;;;;;4900082;29;20048;-79
2021/09/13 11:28:52;;;;;;;2.28;0.65;;;19.80;99.90;;;;;;4883323;29;20146;-79
2021/09/13 11:31:36;;;;;;;5.38;0.80;;;19.60;99.90;;;;;;4877649;29;20123;-78
2021/09/13 11:34:18;;;;;;;4.68;0.82;;;19.60;99.90;;;;;;4915360;29;20048;-79
2021/09/13 11:36:53;;;;;;;3.42;0.80;;;19.80;99.90;;;;;;4890251;29;20057;-79
2021/09/13 11:39:19;;;;;;;3.38;0.60;;;20.00;99.90;;;;;;4893860;29;20056;-79
2021/09/13 11:41:54;;;;;;;3.97;0.65;;;20.20;99.90;;;;;;4895592;29;20504;-79
2021/09/13 11:44:20;;;;;;;3.63;0.93;;;20.00;99.90;;;;;;4869307;29;20063;-79
2021/09/13 11:47:03;;;;;;;4.25;1.00;;;20.40;99.90;;;;;;4896565;29;20048;-79
2021/09/13 11:49:34;;;;;;;5.35;0.90;;;20.30;99.90;;;;;;4892418;29;20071;-78
2021/09/13 11:52:07;;;;;;;6.80;0.88;;;20.20;99.90;;;;;;4895472;29;20457;-80
2021/09/13 11:54:43;;;;;;;2.97;0.80;;;20.20;99.90;;;;;;4897446;29;20495;-79
2021/09/13 11:57:42;;;;;;;6.20;0.90;;;20.30;99.90;;;;;;4896820;29;20119;-79
2021/09/13 12:00:13;;;;;;;5.25;0.75;;;20.40;99.90;;;;;;4804182;29;20062;-79
2021/09/13 12:02:52;;;;;;;6.15;1.00;;;20.70;99.90;;;;;;4808335;29;20066;-79
2021/09/13 12:05:23;;;;;;;3.88;0.80;;;21.20;99.90;;;;;;4807077;29;20153;-80
2021/09/13 12:07:51;;;;;;;3.70;0.70;;;21.50;99.90;;;;;;4805345;29;20049;-78
2021/09/13 12:10:26;;;;;;;4.03;0.90;;;21.90;99.90;;;;;;4790730;29;20058;-79
2021/09/13 12:12:57;;;;;;;1.70;0.63;;;21.80;99.90;;;;;;4795162;29;20151;-80
2021/09/13 12:15:27;;;;;;;2.75;0.90;;;22.20;99.90;;;;;;4792034;29;20566;-80
2021/09/13 12:17:55;;;;;;;5.38;1.00;;;22.40;99.90;;;;;;4804637;29;20050;-80
2021/09/13 12:20:41;;;;;;;1.88;0.70;;;22.70;99.90;;;;;;4805084;29;20053;-80
2021/09/13 12:23:10;;;;;;;2.08;0.80;;;22.50;99.90;;;;;;4809412;29;20058;-80
2021/09/13 12:25:47;;;;;;;1.83;0.80;;;22.40;99.90;;;;;;4810801;29;20093;-80
2021/09/13 12:28:22;;;;;;;5.47;1.00;;;21.90;99.90;;;;;;4802838;29;20050;-79
2021/09/13 12:30:54;;;;;;;4.60;1.20;;;21.30;99.90;;;;;;4819785;29;20487;-80
2021/09/13 12:33:20;;;;;;;4.65;1.17;;;20.80;99.90;;;;;;4799505;29;20038;-80
2021/09/13 12:35:49;;;;;;;4.10;0.82;;;20.60;99.90;;;;;;4822265;29;20099;-80
2021/09/13 12:38:20;;;;;;;4.20;0.90;;;20.20;99.90;;;;;;4897145;29;20052;-79
2021/09/13 12:40:58;;;;;;;2.42;0.75;;;20.00;99.90;;;;;;4886478;29;20051;-80
2021/09/13 12:43:26;;;;;;;5.47;1.10;;;19.90;99.90;;;;;;4894181;29;20052;-79
2021/09/13 12:46:08;;;;;;;3.25;0.80;;;19.80;99.90;;;;;;4898739;29;20058;-80
2021/09/13 12:48:36;;;;;;;4.78;1.00;;;19.80;99.90;;;;;;4908583;29;20064;-78
2021/09/13 12:51:03;;;;;;;5.30;0.82;;;19.70;99.90;;;;;;4892902;29;20100;-80